Latest Weather Observations for Canberra

IDN60901

Issued at 5:32 pm EDT Wednesday 28 January 2015 (issued every 10 minutes, with the page automatically refreshed every 10 minutes)

About weather observations | Map of Canberra area stations | Latest observations for Canberra area | Other Formats
Station Details ID: 070351 Name: CANBERRA AIRPORT Lat: -35.31 Lon: 149.20 Height: 577.05 m
Data from the previous 72 hours. | See also: Recent months at Canberra
Date/Time
EDT
Tmp

°C
App
Tmp
°C
Dew
Point
°C
Rel
Hum
%
Delta-T

°C
Wind Press
QNH
hPa
Press
MSL
hPa
Rain
since
9 am
mm
Dir
 
Spd
km/h
Gust
km/h
Spd
kts
Gust
kts
28/05:00pm 18.8 13.3 9.3 54 5.1 ESE 28 37 15 20 1014.7 - 0.0
28/04:30pm 18.1 11.6 8.9 55 4.9 ESE 33 44 18 24 1014.4 - 0.0
28/04:00pm 19.7 12.6 9.6 52 5.5 SE 37 52 20 28 1014.3 - 0.0
28/03:56pm 20.3 12.7 8.9 48 6.2 SE 39 52 21 28 1014.2 - 0.0
28/03:00pm 22.2 18.5 9.4 44 7.1 ESE 19 30 10 16 1014.4 1012.0 0.0
28/02:30pm 20.3 14.1 8.0 45 6.6 ESE 30 41 16 22 1014.7 - 0.0
28/02:00pm 21.9 18.4 10.1 47 6.6 ESE 19 33 10 18 1014.9 - 0.0
28/01:30pm 20.4 17.7 9.0 48 6.2 SE 13 17 7 9 1015.3 - 0.0
28/01:00pm 19.3 16.4 8.3 49 5.9 ESE 13 24 7 13 1015.8 - 0.0
28/12:30pm 19.1 15.5 8.4 50 5.7 ESE 17 26 9 14 1015.7 - 0.0
28/12:00pm 19.1 16.1 9.3 53 5.3 E 15 26 8 14 1015.8 1013.3 0.0
28/11:00am 19.0 16.7 10.3 57 4.8 ESE 13 26 7 14 1016.2 - 0.0
28/10:30am 18.2 15.2 9.3 56 4.8 ESE 15 17 8 9 1016.2 - 0.0
28/10:00am 19.2 15.6 9.7 54 5.2 SSE 19 26 10 14 1016.2 - 0.0
28/09:30am 18.2 14.3 9.3 56 4.8 SSE 20 30 11 16 1016.3 - 0.0
28/09:00am 16.8 12.9 9.5 62 3.9 ESE 20 26 11 14 1016.3 1013.9 0.0
28/08:30am 16.2 12.5 9.4 64 3.6 ESE 19 28 10 15 1016.3 - 0.0
28/07:30am 14.9 12.5 9.9 72 2.7 SSE 13 19 7 10 1015.7 - 0.0
28/07:00am 14.2 12.9 9.8 75 2.3 SE 7 11 4 6 1015.4 - 0.0
28/06:30am 14.0 11.9 9.8 76 2.2 ESE 11 13 6 7 1015.0 - 0.0
28/05:30am 14.1 10.5 9.9 76 2.2 SE 19 26 10 14 1014.6 - 0.0
28/05:00am 13.8 11.4 10.0 78 2.0 SE 13 19 7 10 1014.5 - 0.0
28/04:30am 14.0 12.5 10.4 79 1.9 ESE 9 15 5 8 1014.7 - 0.0
28/04:00am 14.2 12.3 10.4 78 2.0 ESE 11 17 6 9 1014.6 - 0.0
28/03:58am 14.2 12.3 10.4 78 2.0 ESE 11 17 6 9 1014.6 - 0.0
28/03:30am 13.9 11.6 10.3 79 1.9 SE 13 19 7 10 1014.6 - 0.0
28/03:00am 14.3 10.8 10.3 77 2.2 SE 19 30 10 16 1014.7 1012.3 0.0
28/02:30am 14.2 11.5 10.2 77 2.1 SSE 15 24 8 13 1014.8 - 0.0
28/02:00am 13.7 10.9 10.1 79 1.9 S 15 20 8 11 1014.9 - 0.0
28/01:58am 13.7 11.3 10.1 79 1.9 S 13 20 7 11 1014.9 - 0.0
28/01:30am 13.5 11.1 9.9 79 1.9 S 13 17 7 9 1015.1 - 0.0
28/01:00am 13.4 11.6 9.6 78 2.0 SSE 9 13 5 7 1015.3 - 0.0
28/12:30am 13.9 11.4 9.7 76 2.2 SE 13 20 7 11 1015.7 - 0.0
28/12:24am 13.8 10.9 9.8 77 2.1 SE 15 20 8 11 1015.8 - 0.0
28/12:00am 14.1 11.7 9.9 76 2.2 SE 13 20 7 11 1015.9 1013.4 0.0
 
Date/Time
EDT
Tmp

°C
App
Tmp
°C
Dew
Point
°C
Rel
Hum
%
Delta-T

°C
Wind Press
QNH
hPa
Press
MSL
hPa
Rain
since
9 am
mm
Dir
 
Spd
km/h
Gust
km/h
Spd
kts
Gust
kts
27/11:56pm 14.0 11.5 9.8 76 2.2 SE 13 17 7 9 1015.9 - 0.0
27/11:30pm 14.3 11.4 9.7 74 2.4 SSE 15 26 8 14 1016.0 - 0.0
27/11:00pm 14.4 11.9 9.6 73 2.5 SSE 13 19 7 10 1016.0 - 0.0
27/10:30pm 14.2 10.9 9.6 74 2.4 SSE 17 26 9 14 1015.9 - 0.0
27/10:00pm 14.3 11.1 9.9 75 2.3 SSE 17 24 9 13 1015.8 - 0.0
27/09:30pm 14.8 11.2 10.6 76 2.3 SE 20 32 11 17 1015.4 - 0.0
27/09:08pm 15.1 11.2 10.7 75 2.4 SE 22 30 12 16 1015.4 - 0.0
27/09:00pm 15.3 12.0 10.9 75 2.4 SE 19 30 10 16 1015.4 1013.0 0.0
27/08:30pm 15.8 14.2 11.4 75 2.4 ESE 11 15 6 8 1015.0 - 0.0
27/08:00pm 15.8 13.0 11.4 75 2.4 ESE 17 22 9 12 1014.7 - 0.0
27/07:30pm 16.2 13.7 11.2 72 2.8 ESE 15 19 8 10 1014.5 - 0.0
27/07:00pm 16.5 13.3 11.2 71 2.9 ESE 19 28 10 15 1014.2 - 0.0
27/06:30pm 17.3 13.9 11.3 68 3.3 ESE 20 26 11 14 1013.9 - 0.0
27/06:00pm 17.4 14.6 11.4 68 3.4 ESE 17 26 9 14 1013.7 1011.2 0.0
27/05:30pm 17.6 14.6 11.8 69 3.3 ESE 19 26 10 14 1013.7 - 0.0
27/05:00pm 17.3 14.5 11.3 68 3.3 ESE 17 22 9 12 1013.9 - 0.0
27/04:30pm 17.7 14.6 11.7 68 3.4 ESE 19 26 10 14 1013.9 - 0.0
27/04:00pm 17.3 13.9 11.3 68 3.3 ESE 20 26 11 14 1014.2 - 0.0
27/03:30pm 17.9 14.9 11.9 68 3.4 E 19 26 10 14 1014.3 - 0.0
27/03:00pm 17.4 14.9 11.2 67 3.5 ESE 15 26 8 14 1014.6 1012.2 0.0
27/02:30pm 17.7 14.7 11.9 69 3.3 SE 19 28 10 15 1014.6 - 0.0
27/02:00pm 17.4 14.0 11.2 67 3.5 ESE 20 28 11 15 1014.7 - 0.0
27/01:30pm 17.7 16.1 11.5 67 3.5 ESE 11 19 6 10 1014.9 - 0.0
27/01:00pm 17.5 15.9 11.5 68 3.4 ESE 11 15 6 8 1015.1 - 0.0
27/12:30pm 17.6 16.0 11.4 67 3.5 E 11 17 6 9 1015.1 - 0.0
27/12:00pm 17.2 15.5 11.2 68 3.3 E 11 17 6 9 1015.6 1013.1 0.0
27/11:30am 17.1 15.0 11.2 68 3.3 ESE 13 17 7 9 1015.7 - 0.0
27/11:00am 16.9 14.4 11.0 68 3.3 SE 15 19 8 10 1015.8 - 0.0
27/10:30am 16.6 14.4 10.7 68 3.2 SE 13 17 7 9 1015.9 - 0.0
27/10:00am 16.5 14.4 11.0 70 3.0 S 13 17 7 9 1015.7 - 0.0
27/09:50am 16.3 14.1 10.8 70 3.0 SSE 13 17 7 9 1015.9 - 0.0
27/09:30am 16.0 13.8 10.7 71 2.9 SSE 13 20 7 11 1015.9 - 0.0
27/09:12am 15.7 13.9 10.9 73 2.6 SSE 11 15 6 8 1015.9 - 0.0
27/09:00am 16.0 13.8 10.7 71 2.9 SE 13 19 7 10 1015.9 1013.4 0.0
27/08:30am 15.3 13.8 10.7 74 2.5 ESE 9 13 5 7 1015.8 - 0.0
27/08:00am 15.1 13.3 10.9 76 2.3 SSE 11 13 6 7 1015.7 - 0.0
27/07:30am 14.9 12.9 10.3 74 2.5 SSE 11 15 6 8 1015.3 - 0.0
27/07:03am 14.7 12.8 10.5 76 2.3 SSE 11 17 6 9 1015.0 - 0.0
27/07:00am 14.7 12.8 10.5 76 2.3 SSE 11 17 6 9 1015.0 - 0.0
27/06:30am 14.4 12.1 10.4 77 2.2 SSE 13 19 7 10 1014.8 - 0.0
27/06:00am 14.4 12.1 10.4 77 2.2 SSE 13 17 7 9 1014.6 1012.2 0.0
27/05:30am 14.3 12.0 10.3 77 2.2 SSE 13 19 7 10 1014.7 - 0.0
27/05:00am 14.4 12.5 10.6 78 2.1 SSE 11 17 6 9 1014.6 - 0.0
27/04:30am 14.3 12.3 10.3 77 2.2 SSE 11 17 6 9 1014.6 - 0.0
27/04:00am 14.3 12.8 10.5 78 2.1 SE 9 13 5 7 1014.8 - 0.0
27/03:30am 14.2 12.3 10.4 78 2.0 SSE 11 13 6 7 1014.9 - 0.0
27/03:00am 14.2 12.7 10.4 78 2.0 SSE 9 13 5 7 1015.2 1012.8 0.0
27/02:57am 14.2 12.7 10.4 78 2.0 SSE 9 13 5 7 1015.2 - 0.0
27/02:30am 14.0 12.4 10.2 78 2.0 SSE 9 11 5 6 1015.4 - 0.0
27/02:00am 14.0 12.3 10.0 77 2.1 SSE 9 15 5 8 1015.6 - 0.0
27/01:30am 14.4 12.8 10.2 76 2.3 SSE 9 13 5 7 1015.9 - 0.0
27/01:00am 14.3 12.2 9.9 75 2.3 SSE 11 15 6 8 1016.1 - 0.0
27/12:30am 14.3 11.9 9.9 75 2.3 SSE 13 17 7 9 1016.2 - 0.0
27/12:00am 14.2 12.1 9.8 75 2.3 SSE 11 15 6 8 1016.3 1013.9 0.0
 
Date/Time
EDT
Tmp

°C
App
Tmp
°C
Dew
Point
°C
Rel
Hum
%
Delta-T

°C
Wind Press
QNH
hPa
Press
MSL
hPa
Rain
since
9 am
mm
Dir
 
Spd
km/h
Gust
km/h
Spd
kts
Gust
kts
26/11:30pm 14.3 11.9 9.9 75 2.3 SE 13 19 7 10 1016.4 - 0.0
26/11:00pm 14.2 12.1 9.8 75 2.3 SE 11 19 6 10 1016.5 - 0.0
26/10:30pm 14.2 11.7 9.6 74 2.4 SE 13 19 7 10 1016.7 - 0.0
26/10:00pm 14.1 11.9 9.5 74 2.4 SE 11 17 6 9 1016.7 - 0.0
26/09:53pm 14.1 11.5 9.3 73 2.5 ESE 13 24 7 13 1016.7 - 0.0
26/09:30pm 14.1 11.2 9.5 74 2.4 ESE 15 24 8 13 1016.6 - 0.0
26/09:09pm 14.2 10.9 9.6 74 2.4 SE 17 22 9 12 1016.4 - 0.0
26/09:00pm 14.3 11.4 9.7 74 2.4 SE 15 20 8 11 1016.3 1013.9 0.0
26/08:30pm 14.6 11.3 9.6 72 2.7 ESE 17 26 9 14 1016.1 - 0.0
26/08:00pm 14.9 11.6 9.7 71 2.8 E 17 24 9 13 1015.8 - 0.0
26/07:30pm 15.2 11.6 10.0 71 2.8 E 19 32 10 17 1015.3 - 0.0
26/07:00pm 15.5 9.8 9.8 69 3.1 E 30 39 16 21 1014.7 - 0.0
26/06:30pm 16.6 10.7 10.5 67 3.3 E 32 43 17 23 1014.3 - 0.0
26/06:00pm 17.4 11.3 10.5 64 3.8 ENE 33 43 18 23 1014.0 1011.5 0.0
26/05:30pm 17.9 12.3 10.3 61 4.2 E 30 39 16 21 1013.9 - 0.0
26/05:00pm 18.7 14.1 11.0 61 4.3 ENE 26 33 14 18 1013.7 - 0.0
26/04:30pm 19.0 13.1 11.3 61 4.3 E 33 43 18 23 1013.7 - 0.0
26/04:00pm 19.9 15.7 12.4 62 4.3 ENE 26 33 14 18 1013.9 - 0.0
26/03:30pm 19.7 14.8 11.2 58 4.8 E 28 33 15 18 1013.8 - 0.0
26/03:00pm 20.5 16.6 12.0 58 4.9 ENE 24 33 13 18 1013.8 1011.3 0.0
26/02:30pm 20.4 16.8 11.9 58 4.9 ENE 22 33 12 18 1014.0 - 0.0
26/02:00pm 19.5 15.4 11.3 59 4.6 E 24 35 13 19 1014.1 - 0.0
26/01:30pm 20.5 17.7 12.5 60 4.6 ENE 19 26 10 14 1014.2 - 0.0
26/01:00pm 21.1 18.1 12.5 58 5.0 NNE 20 28 11 15 1014.4 - 0.0
26/12:30pm 20.0 18.0 12.7 63 4.2 ENE 15 19 8 10 1014.4 - 0.0
26/12:00pm 18.5 16.2 11.6 64 3.9 ENE 15 19 8 10 1014.8 1012.4 0.0
26/11:30am 17.4 13.9 11.0 66 3.5 ENE 20 24 11 13 1014.8 - 0.0
26/11:00am 17.7 16.1 11.5 67 3.5 NNE 11 17 6 9 1014.9 - 0.0
26/10:30am 17.0 14.4 10.8 67 3.4 ENE 15 20 8 11 1015.0 - 0.0
26/10:00am 17.8 15.1 11.8 68 3.4 ENE 17 26 9 14 1015.0 - 0.0
26/09:30am 16.8 13.7 11.5 71 3.0 ESE 19 24 10 13 1014.9 - 0.0
26/09:00am 16.5 14.2 11.6 73 2.7 E 15 24 8 13 1015.1 1012.7 0.0
26/08:44am 15.5 13.3 10.9 74 2.5 ENE 13 26 7 14 1015.0 - 0.0
26/08:30am 15.1 12.9 10.7 75 2.4 ENE 13 19 7 10 1014.9 - 0.0
26/08:00am 14.9 12.5 11.3 79 2.0 E 15 22 8 12 1014.7 - 0.0
26/07:30am 14.4 13.0 11.0 80 1.9 E 9 15 5 8 1014.5 - 0.0
26/07:22am 14.4 13.1 11.2 81 1.8 E 9 13 5 7 1014.4 - 0.0
26/07:00am 14.0 12.2 10.8 81 1.7 NE 11 15 6 8 1014.1 - 0.0
26/06:49am 13.9 12.5 10.9 82 1.6 ENE 9 15 5 8 1013.9 - 0.0
26/06:30am 13.8 12.8 11.0 83 1.5 ENE 7 13 4 7 1013.8 - 0.0
26/06:00am 13.9 11.8 11.1 83 1.5 ENE 13 19 7 10 1013.5 1011.1 0.0
26/05:30am 14.0 11.5 11.2 83 1.5 E 15 22 8 12 1013.0 - 0.0
26/05:00am 14.3 11.5 11.3 82 1.6 E 17 22 9 12 1012.8 - 0.0
26/04:30am 14.5 12.1 11.5 82 1.7 ESE 15 19 8 10 1012.5 - 0.0
26/04:00am 14.6 12.6 11.6 82 1.7 SE 13 15 7 8 1012.6 - 0.0
26/03:30am 14.6 13.0 11.7 83 1.6 ESE 11 15 6 8 1012.5 - 0.0
26/03:00am 14.8 13.7 11.9 83 1.6 E 9 17 5 9 1012.3 1009.8 0.0
26/02:30am 14.8 12.5 11.9 83 1.6 E 15 19 8 10 1012.0 - 0.0
26/02:07am 14.6 13.2 12.1 85 1.4 SE 11 17 6 9 1012.1 - 0.0
26/02:00am 14.3 12.4 11.8 85 1.4 ESE 13 22 7 12 1011.9 - 0.0
26/01:30am 14.6 13.9 12.1 85 1.4 E 7 13 4 7 1011.6 - 0.0
26/01:00am 14.4 14.2 11.9 85 1.4 E 4 11 2 6 1011.5 - 0.0
26/12:30am 15.1 14.5 12.2 83 1.6 ENE 7 15 4 8 1011.4 - 0.0
26/12:00am 15.4 14.9 12.2 81 1.8 ESE 6 11 3 6 1011.2 1008.7 0.0
 
Date/Time
EDT
Tmp

°C
App
Tmp
°C
Dew
Point
°C
Rel
Hum
%
Delta-T

°C
Wind Press
QNH
hPa
Press
MSL
hPa
Rain
since
9 am
mm
Dir
 
Spd
km/h
Gust
km/h
Spd
kts
Gust
kts
25/11:30pm 15.8 14.2 11.4 75 2.4 ENE 11 15 6 8 1010.8 - 0.0
25/11:00pm 17.3 14.2 8.7 57 4.6 NE 15 20 8 11 1010.4 - 0.0
25/10:30pm 17.1 14.5 4.4 43 6.2 NW 7 13 4 7 1010.1 - 0.0
25/10:00pm 17.1 14.0 5.4 46 5.8 NE 11 15 6 8 1009.7 - 0.0
25/09:30pm 19.1 14.7 4.8 39 7.1 NW 17 19 9 10 1009.3 - 0.0
25/09:00pm 20.4 15.6 4.8 36 7.8 NW 19 22 10 12 1009.1 1006.6 0.0
25/08:30pm 20.8 16.2 5.6 37 7.8 NNW 19 24 10 13 1008.7 - 0.0
25/08:00pm 22.8 18.0 5.7 33 8.9 NW 20 30 11 16 1008.4 - 0.0
25/07:30pm 24.6 20.6 6.8 32 9.5 W 17 24 9 13 1007.8 - 0.0
25/07:00pm 25.5 20.0 5.7 28 10.4 W 24 33 13 18 1007.4 - 0.0
25/06:30pm 26.0 20.7 6.6 29 10.4 W 24 32 13 17 1007.0 - 0.0
25/06:00pm 26.4 21.0 6.4 28 10.8 W 24 33 13 18 1006.7 1004.2 0.0

Latest Capital City Observations: Canberra | Sydney | Melbourne | Brisbane | Adelaide | Perth | Hobart | Darwin

Other Formats:

Comma delimited format used in spreadsheet applications
http://www.bom.gov.au/fwo/IDN60903/IDN60903.94926.axf

JavaScript Object Notation format (JSON) in row-major order
http://www.bom.gov.au/fwo/IDN60903/IDN60903.94926.json